Tropical Cyclones
[Index]
Main Index Home Page Stock Weather Photos Extreme Storms Discussion Storm News and Storm Chasing Reports Tropical Cyclones / Hurricanes / Typhoons Weather Data and Links Wild Fires / Bushfires Weather Observation Techniques Weather Picture Catalogue Tornado Pictures and Reports Stock Video Footage and DVDs for sale
Season 1982-1983 Tropical Cyclone NAOMI Track Map
Season 1982-1983 Summaries: [BoM-AU] [JTWC-AU] [JTWC-SIO] [JTWC-SPAC] [JTWC-SH]
<<- Previous TC | JTWC 1982-1983 Season | Next TC ->>

click for intensity scale information  Lat/long Grid: Show Hide

 Date Labels: Show Hide

Joint Typhoon Warning Centre Cyclone Data

Name: NAOMI

19 Apr 1983 12:00 UTC to 30 Apr 1983 00:00 UTC

    date/time    lat    long     hPa   cat  kts
1983-04-19 12   11.8    80.4                  20          
1983-04-19 18   12.1    80.7                  20          
1983-04-20 00   12.3    81.1                  20          
1983-04-20 06   12.5    81.5                  20          
1983-04-20 12   12.7    81.9                  25          
1983-04-20 18   12.8    82.8                  25          
1983-04-21 00   12.8    83.5                  25          
1983-04-21 06   13.3    83.3                  25          
1983-04-21 12   13.6    83.0                  30          
1983-04-21 18   13.1    82.7                  30          
1983-04-22 00   12.5    82.4                  30          
1983-04-22 06   11.8    82.0                  30          
1983-04-22 12   11.2    81.6                  35          
1983-04-22 18   10.6    81.5                  35          
1983-04-23 00   10.0    81.5                  35          
1983-04-23 06    9.4    81.4                  35          
1983-04-23 12    8.8    81.3            1     40          
1983-04-23 18    8.7    81.6            1     45          
1983-04-24 00    9.0    82.0            1     50          
1983-04-24 06    9.3    82.1            1     50          
1983-04-24 12    9.6    82.2            1     50          
1983-04-24 18    9.8    82.5            1     50          
1983-04-25 00   10.0    83.0            1     50          
1983-04-25 06   10.3    83.6            1     50          
1983-04-25 12   10.7    84.4            2     55          
1983-04-25 18   11.1    85.5            2     60          
1983-04-26 00   11.5    86.6            2     60          
1983-04-26 06   12.0    87.8            2     60          
1983-04-26 12   12.5    89.0            2     60          
1983-04-26 18   13.0    90.0            2     60          
1983-04-27 00   13.5    91.0            2     60          
1983-04-27 06   14.1    91.9            2     60          
1983-04-27 12   14.8    92.7            2     55          
1983-04-27 18   15.4    93.5            2     55          
1983-04-28 00   16.0    94.0            1     50          
1983-04-28 06   16.4    94.3            1     50          
1983-04-28 12   16.6    94.5            1     45          
1983-04-28 18   16.7    94.8            1     45          
1983-04-29 00   16.8    95.1            1     40          
1983-04-29 06   16.7    95.4            1     40          
1983-04-29 12   16.7    95.7                  35          
1983-04-29 18   16.8    95.8                  35          
1983-04-30 00   17.1    95.5                  30          
Winds are 1-min average.

Tropical cyclone tracks developed by Michael Bath using data from the Joint Typhoon Warning Centre Best Tracks and Google Maps.


[Australian Severe Weather index] [Copyright Notice] [Email Contacts] [Search This Site] [Privacy Policy]
Document: tropical_cyclone_naomi.htm Updated: 18 September 2016